Kenansville, NC (28349)

1:17 PM EST on February 20, 2017 (GMT -0500)
Maxwell Creek | | Change Station

Elev 104 ft 34.90 °N, 78.02 °W | Updated 10 minutes ago

Clear
Clear
74.1 °F
Feels Like 77 °F
N
4.2
Wind Variable Wind from NE

Today
High -- | Low -- °F
--% Chance of Precip.
Yesterday
High -- | Low -- °F
Precip. -- in
Pressure 30.18 in
Visibility 10.0 miles
Clouds Clear
Heat Index 77 °F
Dew Point 42 °F
Humidity 31%
Rainfall 0.00 in
Snow Depth Not available.
6:51 AM 5:59 PM
Waning Crescent, 32% visible
METAR KOAJ 201756Z AUTO 03009KT 10SM CLR 22/06 A3017 RMK AO2 SLP220 T02170056 10217 20056 58014
Pressure 30.18 in
Visibility 10.0 miles
Clouds Clear
Heat Index 77 °F
Dew Point 42 °F
Humidity 31%
Rainfall 0.00 in
Snow Depth Not available.
6:51 AM 5:59 PM
Waning Crescent, 32% visible
METAR KOAJ 201756Z AUTO 03009KT 10SM CLR 22/06 A3017 RMK AO2 SLP220 T02170056 10217 20056 58014

Get Your Daily Forecast Email!

Thanks for signing up!

Be on the lookout for a verification email in your inbox.

You'll start receiving the daily forecast at 8 AM.

×

10-Day Weather Forecast

Almanac

Astronomy

Feb. 20, 2017 Rise Set
Actual Time
Civil Twilight
Nautical Twilight
Astronomical Twilight
Moon
Length of Visible Light
Length of Day
Tomorrow will be .
, % of the Moon is Illuminated

Today's Extremes

State Highs State Lows

Community

WunderPhotos

Upload Photos

1,962,540 photos uploaded!

WunderBlog® & News

Nearby

Air Quality

  Air Quality AQ Index Pollutant
Not available.

Snow Depth

Station Depth Elevation

Earthquake Activity

City Distance Mag. Time & Date
Minimum magnitude displayed is 2.5.

Coastal Water Temperatures

Place Temperature

Stations

Nearby Weather Stations

Station Location Temp. Windchill Dew Point Humidity Wind Precip. Elev Updated Type
                   

Watches & Warnings

There are currently no watches in effect.